sensor_id;sensor_type;location;lat;lon;timestamp;pressure;altitude;pressure_sealevel;temperature;humidity
24788;BME280;12883;52.662;5.196;2023-12-07T00:00:59;100966.31;;;2.87;100.00
24788;BME280;12883;52.662;5.196;2023-12-07T00:03:24;100966.13;;;2.89;100.00
24788;BME280;12883;52.662;5.196;2023-12-07T00:05:50;100971.69;;;2.86;100.00
24788;BME280;12883;52.662;5.196;2023-12-07T00:08:15;100976.78;;;2.87;100.00
24788;BME280;12883;52.662;5.196;2023-12-07T00:10:40;100974.56;;;2.83;100.00
24788;BME280;12883;52.662;5.196;2023-12-07T00:13:06;100974.56;;;2.83;100.00
24788;BME280;12883;52.662;5.196;2023-12-07T00:15:31;100985.06;;;2.83;100.00
24788;BME280;12883;52.662;5.196;2023-12-07T00:17:56;100986.03;;;2.82;100.00
24788;BME280;12883;52.662;5.196;2023-12-07T00:20:22;100988.66;;;2.82;100.00
24788;BME280;12883;52.662;5.196;2023-12-07T00:22:47;100985.34;;;2.80;100.00
24788;BME280;12883;52.662;5.196;2023-12-07T00:25:13;100985.66;;;2.77;100.00
24788;BME280;12883;52.662;5.196;2023-12-07T00:27:38;100983.34;;;2.64;100.00
24788;BME280;12883;52.662;5.196;2023-12-07T00:30:04;100977.41;;;2.72;100.00
24788;BME280;12883;52.662;5.196;2023-12-07T00:32:29;100979.94;;;2.64;100.00
24788;BME280;12883;52.662;5.196;2023-12-07T00:34:55;100896.44;;;1.88;100.00
24788;BME280;12883;52.662;5.196;2023-12-07T00:37:20;100970.03;;;2.58;100.00
24788;BME280;12883;52.662;5.196;2023-12-07T00:39:45;100970.28;;;2.55;100.00
24788;BME280;12883;52.662;5.196;2023-12-07T00:42:11;100970.88;;;2.49;100.00
24788;BME280;12883;52.662;5.196;2023-12-07T00:44:40;100992.97;;;2.37;100.00
24788;BME280;12883;52.662;5.196;2023-12-07T00:47:05;100986.09;;;2.36;100.00
24788;BME280;12883;52.662;5.196;2023-12-07T00:49:31;100990.25;;;2.29;100.00
24788;BME280;12883;52.662;5.196;2023-12-07T00:51:56;100984.03;;;2.30;100.00
24788;BME280;12883;52.662;5.196;2023-12-07T00:54:21;100995.22;;;2.22;100.00
24788;BME280;12883;52.662;5.196;2023-12-07T00:56:47;100997.41;;;2.17;100.00
24788;BME280;12883;52.662;5.196;2023-12-07T00:59:12;101003.63;;;2.07;100.00
24788;BME280;12883;52.662;5.196;2023-12-07T01:01:38;101000.47;;;2.03;100.00
24788;BME280;12883;52.662;5.196;2023-12-07T01:04:04;101012.63;;;1.95;100.00
24788;BME280;12883;52.662;5.196;2023-12-07T01:06:30;100995.81;;;1.97;100.00
24788;BME280;12883;52.662;5.196;2023-12-07T01:08:56;101001.06;;;1.97;100.00
24788;BME280;12883;52.662;5.196;2023-12-07T01:11:21;100996.06;;;2.04;100.00
24788;BME280;12883;52.662;5.196;2023-12-07T01:13:47;100990.16;;;2.02;100.00
24788;BME280;12883;52.662;5.196;2023-12-07T01:16:12;100989.34;;;2.01;100.00
24788;BME280;12883;52.662;5.196;2023-12-07T01:18:37;100987.00;;;1.98;100.00
24788;BME280;12883;52.662;5.196;2023-12-07T01:21:03;100995.13;;;1.86;100.00
24788;BME280;12883;52.662;5.196;2023-12-07T01:23:28;100995.00;;;1.78;100.00
24788;BME280;12883;52.662;5.196;2023-12-07T01:25:53;100999.84;;;1.73;100.00
24788;BME280;12883;52.662;5.196;2023-12-07T01:28:19;101003.81;;;1.67;100.00
24788;BME280;12883;52.662;5.196;2023-12-07T01:30:44;101004.50;;;1.60;100.00
24788;BME280;12883;52.662;5.196;2023-12-07T01:33:10;101013.69;;;1.45;100.00
24788;BME280;12883;52.662;5.196;2023-12-07T01:35:35;101012.47;;;1.39;100.00
24788;BME280;12883;52.662;5.196;2023-12-07T01:38:00;101014.13;;;1.40;100.00
24788;BME280;12883;52.662;5.196;2023-12-07T01:40:26;101014.41;;;1.37;100.00
24788;BME280;12883;52.662;5.196;2023-12-07T01:42:52;101013.56;;;1.37;100.00
24788;BME280;12883;52.662;5.196;2023-12-07T01:45:18;101022.22;;;1.28;100.00
24788;BME280;12883;52.662;5.196;2023-12-07T01:47:44;101001.31;;;1.28;100.00
24788;BME280;12883;52.662;5.196;2023-12-07T01:50:10;101013.81;;;1.24;100.00
24788;BME280;12883;52.662;5.196;2023-12-07T01:52:43;101031.69;;;1.19;100.00
24788;BME280;12883;52.662;5.196;2023-12-07T01:55:10;101023.03;;;1.19;100.00
24788;BME280;12883;52.662;5.196;2023-12-07T01:57:36;101024.94;;;1.17;100.00
24788;BME280;12883;52.662;5.196;2023-12-07T02:00:02;101019.31;;;1.12;100.00
24788;BME280;12883;52.662;5.196;2023-12-07T02:02:29;101024.25;;;1.15;100.00
24788;BME280;12883;52.662;5.196;2023-12-07T02:04:55;101030.72;;;1.11;100.00
24788;BME280;12883;52.662;5.196;2023-12-07T02:07:21;101034.25;;;1.10;100.00
24788;BME280;12883;52.662;5.196;2023-12-07T02:09:47;101031.41;;;1.13;100.00
24788;BME280;12883;52.662;5.196;2023-12-07T02:12:13;101023.97;;;1.08;100.00
24788;BME280;12883;52.662;5.196;2023-12-07T02:14:38;101031.25;;;1.05;100.00
24788;BME280;12883;52.662;5.196;2023-12-07T02:17:25;101029.84;;;1.01;100.00
24788;BME280;12883;52.662;5.196;2023-12-07T02:22:42;101025.97;;;0.86;100.00
24788;BME280;12883;52.662;5.196;2023-12-07T02:25:13;101030.06;;;0.79;100.00
24788;BME280;12883;52.662;5.196;2023-12-07T02:27:40;101020.81;;;0.75;100.00
24788;BME280;12883;52.662;5.196;2023-12-07T02:30:08;101022.47;;;0.76;100.00
24788;BME280;12883;52.662;5.196;2023-12-07T02:32:35;101024.84;;;0.79;100.00
24788;BME280;12883;52.662;5.196;2023-12-07T02:35:01;101024.00;;;0.78;100.00
24788;BME280;12883;52.662;5.196;2023-12-07T02:37:28;101018.66;;;0.80;100.00
24788;BME280;12883;52.662;5.196;2023-12-07T02:39:55;100993.06;;;0.74;100.00
24788;BME280;12883;52.662;5.196;2023-12-07T02:42:21;100958.13;;;0.56;100.00
24788;BME280;12883;52.662;5.196;2023-12-07T02:44:49;101006.28;;;0.82;100.00
24788;BME280;12883;52.662;5.196;2023-12-07T02:47:15;101004.38;;;0.84;100.00
24788;BME280;12883;52.662;5.196;2023-12-07T02:49:40;101002.69;;;0.83;100.00
24788;BME280;12883;52.662;5.196;2023-12-07T02:52:06;100992.00;;;0.86;100.00
24788;BME280;12883;52.662;5.196;2023-12-07T02:54:31;100999.16;;;0.84;100.00
24788;BME280;12883;52.662;5.196;2023-12-07T02:56:56;100996.53;;;0.84;100.00
24788;BME280;12883;52.662;5.196;2023-12-07T02:59:22;100991.31;;;0.84;100.00
24788;BME280;12883;52.662;5.196;2023-12-07T03:01:47;100999.41;;;0.81;100.00
24788;BME280;12883;52.662;5.196;2023-12-07T03:04:12;100996.78;;;0.81;100.00
24788;BME280;12883;52.662;5.196;2023-12-07T03:06:38;101002.84;;;0.81;100.00
24788;BME280;12883;52.662;5.196;2023-12-07T03:09:03;101001.06;;;0.82;100.00
24788;BME280;12883;52.662;5.196;2023-12-07T03:11:28;100999.53;;;0.79;100.00
24788;BME280;12883;52.662;5.196;2023-12-07T03:13:54;101000.91;;;0.74;100.00
24788;BME280;12883;52.662;5.196;2023-12-07T03:16:19;101003.50;;;0.74;100.00
24788;BME280;12883;52.662;5.196;2023-12-07T03:18:44;101022.44;;;0.66;100.00
24788;BME280;12883;52.662;5.196;2023-12-07T03:21:10;101017.06;;;0.68;100.00
24788;BME280;12883;52.662;5.196;2023-12-07T03:23:35;100962.47;;;0.16;100.00
24788;BME280;12883;52.662;5.196;2023-12-07T03:26:01;101008.84;;;0.63;100.00
24788;BME280;12883;52.662;5.196;2023-12-07T03:28:26;101022.13;;;0.60;100.00
24788;BME280;12883;52.662;5.196;2023-12-07T03:30:52;101011.06;;;0.47;100.00
24788;BME280;12883;52.662;5.196;2023-12-07T03:33:17;101009.31;;;0.27;100.00
24788;BME280;12883;52.662;5.196;2023-12-07T03:35:42;101027.69;;;0.46;100.00
24788;BME280;12883;52.662;5.196;2023-12-07T03:38:08;101033.88;;;0.45;100.00
24788;BME280;12883;52.662;5.196;2023-12-07T03:40:33;101034.25;;;0.40;100.00
24788;BME280;12883;52.662;5.196;2023-12-07T03:42:59;101023.59;;;0.53;100.00
24788;BME280;12883;52.662;5.196;2023-12-07T03:45:24;101017.53;;;0.43;100.00
24788;BME280;12883;52.662;5.196;2023-12-07T03:47:50;101028.09;;;0.41;100.00
24788;BME280;12883;52.662;5.196;2023-12-07T03:50:15;101035.66;;;0.44;100.00
24788;BME280;12883;52.662;5.196;2023-12-07T03:52:40;101023.00;;;0.40;100.00
24788;BME280;12883;52.662;5.196;2023-12-07T03:55:06;101014.41;;;0.49;100.00
24788;BME280;12883;52.662;5.196;2023-12-07T03:57:32;101006.75;;;0.36;100.00
24788;BME280;12883;52.662;5.196;2023-12-07T03:59:57;101021.22;;;0.40;100.00
24788;BME280;12883;52.662;5.196;2023-12-07T04:02:22;101040.28;;;0.41;100.00
24788;BME280;12883;52.662;5.196;2023-12-07T04:04:48;101024.91;;;0.38;100.00
24788;BME280;12883;52.662;5.196;2023-12-07T04:07:13;101027.22;;;0.31;100.00
24788;BME280;12883;52.662;5.196;2023-12-07T04:09:39;101027.06;;;0.33;100.00
24788;BME280;12883;52.662;5.196;2023-12-07T04:12:04;101029.50;;;0.25;100.00
24788;BME280;12883;52.662;5.196;2023-12-07T04:14:30;101028.13;;;0.21;100.00
24788;BME280;12883;52.662;5.196;2023-12-07T04:16:55;101030.72;;;0.21;100.00
24788;BME280;12883;52.662;5.196;2023-12-07T04:19:20;101035.50;;;0.16;100.00
24788;BME280;12883;52.662;5.196;2023-12-07T04:21:46;101008.56;;;0.36;100.00
24788;BME280;12883;52.662;5.196;2023-12-07T04:24:11;101017.47;;;0.33;100.00
24788;BME280;12883;52.662;5.196;2023-12-07T04:26:36;101019.41;;;0.31;100.00
24788;BME280;12883;52.662;5.196;2023-12-07T04:29:02;101022.75;;;0.22;100.00
24788;BME280;12883;52.662;5.196;2023-12-07T04:31:27;101021.22;;;0.20;100.00
24788;BME280;12883;52.662;5.196;2023-12-07T04:33:52;101011.13;;;0.26;100.00
24788;BME280;12883;52.662;5.196;2023-12-07T04:36:18;101013.84;;;0.25;100.00
24788;BME280;12883;52.662;5.196;2023-12-07T04:38:43;101006.47;;;0.30;100.00
24788;BME280;12883;52.662;5.196;2023-12-07T04:41:08;101015.81;;;0.32;100.00
24788;BME280;12883;52.662;5.196;2023-12-07T04:43:34;101010.44;;;0.24;100.00
24788;BME280;12883;52.662;5.196;2023-12-07T04:45:59;101022.91;;;0.21;100.00
24788;BME280;12883;52.662;5.196;2023-12-07T04:48:24;101027.56;;;0.17;100.00
24788;BME280;12883;52.662;5.196;2023-12-07T04:50:51;101016.28;;;0.17;100.00
24788;BME280;12883;52.662;5.196;2023-12-07T04:53:16;101020.53;;;0.18;100.00
24788;BME280;12883;52.662;5.196;2023-12-07T04:55:41;101008.13;;;0.31;100.00
24788;BME280;12883;52.662;5.196;2023-12-07T04:58:12;100997.69;;;0.31;100.00
24788;BME280;12883;52.662;5.196;2023-12-07T05:00:37;100991.50;;;0.32;100.00
24788;BME280;12883;52.662;5.196;2023-12-07T05:03:02;100988.09;;;0.41;100.00
24788;BME280;12883;52.662;5.196;2023-12-07T05:05:28;101000.75;;;0.36;100.00
24788;BME280;12883;52.662;5.196;2023-12-07T05:07:53;100989.06;;;0.40;100.00
24788;BME280;12883;52.662;5.196;2023-12-07T05:10:19;100986.06;;;0.44;100.00
24788;BME280;12883;52.662;5.196;2023-12-07T05:12:44;100995.13;;;0.40;100.00
24788;BME280;12883;52.662;5.196;2023-12-07T05:15:09;100996.66;;;0.43;100.00
24788;BME280;12883;52.662;5.196;2023-12-07T05:17:35;100991.09;;;0.36;100.00
24788;BME280;12883;52.662;5.196;2023-12-07T05:20:00;100975.16;;;0.30;100.00
24788;BME280;12883;52.662;5.196;2023-12-07T05:22:27;100989.28;;;0.27;100.00
24788;BME280;12883;52.662;5.196;2023-12-07T05:24:52;100983.44;;;0.35;100.00
24788;BME280;12883;52.662;5.196;2023-12-07T05:27:17;100970.81;;;0.40;100.00
24788;BME280;12883;52.662;5.196;2023-12-07T05:29:43;100968.34;;;0.38;100.00
24788;BME280;12883;52.662;5.196;2023-12-07T05:32:08;100970.97;;;0.48;100.00
24788;BME280;12883;52.662;5.196;2023-12-07T05:34:34;100958.34;;;0.53;100.00
24788;BME280;12883;52.662;5.196;2023-12-07T05:37:00;100960.72;;;0.56;100.00
24788;BME280;12883;52.662;5.196;2023-12-07T05:39:26;100946.19;;;0.63;100.00
24788;BME280;12883;52.662;5.196;2023-12-07T05:41:51;100955.78;;;0.62;100.00
24788;BME280;12883;52.662;5.196;2023-12-07T05:44:16;100936.03;;;0.69;100.00
24788;BME280;12883;52.662;5.196;2023-12-07T05:46:46;100926.00;;;0.74;100.00
24788;BME280;12883;52.662;5.196;2023-12-07T05:49:12;100934.38;;;0.68;100.00
24788;BME280;12883;52.662;5.196;2023-12-07T05:51:38;100920.63;;;0.76;100.00
24788;BME280;12883;52.662;5.196;2023-12-07T05:54:03;100894.66;;;0.65;100.00
24788;BME280;12883;52.662;5.196;2023-12-07T05:56:29;100916.81;;;0.80;100.00
24788;BME280;12883;52.662;5.196;2023-12-07T05:58:56;100923.25;;;0.76;100.00
24788;BME280;12883;52.662;5.196;2023-12-07T06:01:22;100908.91;;;0.51;100.00
24788;BME280;12883;52.662;5.196;2023-12-07T06:03:49;100877.38;;;0.34;100.00
24788;BME280;12883;52.662;5.196;2023-12-07T06:06:15;100931.50;;;0.71;100.00
24788;BME280;12883;52.662;5.196;2023-12-07T06:08:40;100917.47;;;0.72;100.00
24788;BME280;12883;52.662;5.196;2023-12-07T06:11:06;100891.47;;;0.52;100.00
24788;BME280;12883;52.662;5.196;2023-12-07T06:13:32;100931.66;;;0.70;100.00
24788;BME280;12883;52.662;5.196;2023-12-07T06:15:58;100935.19;;;0.69;100.00
24788;BME280;12883;52.662;5.196;2023-12-07T06:18:24;100934.66;;;0.75;100.00
24788;BME280;12883;52.662;5.196;2023-12-07T06:20:50;100939.31;;;0.71;100.00
24788;BME280;12883;52.662;5.196;2023-12-07T06:23:15;100928.38;;;0.87;100.00
24788;BME280;12883;52.662;5.196;2023-12-07T06:25:40;100927.81;;;0.83;100.00
24788;BME280;12883;52.662;5.196;2023-12-07T06:28:06;100939.72;;;0.67;100.00
24788;BME280;12883;52.662;5.196;2023-12-07T06:30:32;100928.16;;;0.60;100.00
24788;BME280;12883;52.662;5.196;2023-12-07T06:32:57;100933.53;;;0.68;100.00
24788;BME280;12883;52.662;5.196;2023-12-07T06:35:23;100949.34;;;0.66;100.00
24788;BME280;12883;52.662;5.196;2023-12-07T06:37:48;100942.09;;;0.70;100.00
24788;BME280;12883;52.662;5.196;2023-12-07T06:40:14;100944.69;;;0.70;100.00
24788;BME280;12883;52.662;5.196;2023-12-07T06:42:39;100953.75;;;0.66;100.00
24788;BME280;12883;52.662;5.196;2023-12-07T06:45:05;100947.84;;;0.64;100.00
24788;BME280;12883;52.662;5.196;2023-12-07T06:47:30;100940.13;;;0.62;100.00
24788;BME280;12883;52.662;5.196;2023-12-07T06:49:56;100941.50;;;0.57;100.00
24788;BME280;12883;52.662;5.196;2023-12-07T06:52:22;100932.03;;;0.75;100.00
24788;BME280;12883;52.662;5.196;2023-12-07T06:54:47;100925.72;;;0.68;100.00
24788;BME280;12883;52.662;5.196;2023-12-07T06:57:13;100896.81;;;0.50;100.00
24788;BME280;12883;52.662;5.196;2023-12-07T06:59:38;100917.47;;;0.72;100.00
24788;BME280;12883;52.662;5.196;2023-12-07T07:02:03;100894.19;;;0.50;100.00
24788;BME280;12883;52.662;5.196;2023-12-07T07:04:29;100927.19;;;0.61;100.00
24788;BME280;12883;52.662;5.196;2023-12-07T07:06:55;100928.31;;;0.68;100.00
24788;BME280;12883;52.662;5.196;2023-12-07T07:09:20;100926.13;;;0.73;100.00
24788;BME280;12883;52.662;5.196;2023-12-07T07:11:48;100913.38;;;0.89;100.00
24788;BME280;12883;52.662;5.196;2023-12-07T07:14:14;100922.31;;;0.77;100.00
24788;BME280;12883;52.662;5.196;2023-12-07T07:16:39;100915.03;;;0.80;100.00
24788;BME280;12883;52.662;5.196;2023-12-07T07:19:05;100910.78;;;0.89;100.00
24788;BME280;12883;52.662;5.196;2023-12-07T07:21:31;100916.84;;;0.89;100.00
24788;BME280;12883;52.662;5.196;2023-12-07T07:23:56;100915.84;;;0.81;100.00
24788;BME280;12883;52.662;5.196;2023-12-07T07:26:22;100891.81;;;0.87;100.00
24788;BME280;12883;52.662;5.196;2023-12-07T07:28:47;100881.31;;;0.68;100.00
24788;BME280;12883;52.662;5.196;2023-12-07T07:31:13;100895.25;;;0.87;100.00
24788;BME280;12883;52.662;5.196;2023-12-07T07:33:38;100902.38;;;0.85;100.00
24788;BME280;12883;52.662;5.196;2023-12-07T07:36:04;100906.09;;;0.83;100.00
24788;BME280;12883;52.662;5.196;2023-12-07T07:38:29;100906.38;;;0.80;100.00
24788;BME280;12883;52.662;5.196;2023-12-07T07:40:54;100903.59;;;0.72;100.00
24788;BME280;12883;52.662;5.196;2023-12-07T07:43:20;100911.59;;;0.80;100.00
24788;BME280;12883;52.662;5.196;2023-12-07T07:45:46;100902.91;;;0.79;100.00
24788;BME280;12883;52.662;5.196;2023-12-07T07:48:11;100902.78;;;0.71;100.00
24788;BME280;12883;52.662;5.196;2023-12-07T07:50:37;100909.41;;;0.85;100.00
24788;BME280;12883;52.662;5.196;2023-12-07T07:53:03;100897.16;;;0.85;100.00
24788;BME280;12883;52.662;5.196;2023-12-07T07:55:29;100898.00;;;0.86;100.00
24788;BME280;12883;52.662;5.196;2023-12-07T07:57:54;100897.59;;;0.90;100.00
24788;BME280;12883;52.662;5.196;2023-12-07T08:00:20;100905.53;;;0.89;100.00
24788;BME280;12883;52.662;5.196;2023-12-07T08:02:46;100895.97;;;1.08;100.00
24788;BME280;12883;52.662;5.196;2023-12-07T08:05:11;100842.88;;;0.89;100.00
24788;BME280;12883;52.662;5.196;2023-12-07T08:07:38;100877.13;;;1.14;100.00
24788;BME280;12883;52.662;5.196;2023-12-07T08:10:05;100867.06;;;1.29;100.00
24788;BME280;12883;52.662;5.196;2023-12-07T08:12:30;100870.66;;;1.28;100.00
24788;BME280;12883;52.662;5.196;2023-12-07T08:14:56;100865.13;;;1.31;100.00
24788;BME280;12883;52.662;5.196;2023-12-07T08:17:21;100860.06;;;1.39;100.00
24788;BME280;12883;52.662;5.196;2023-12-07T08:19:47;100850.00;;;1.44;100.00
24788;BME280;12883;52.662;5.196;2023-12-07T08:22:12;100849.72;;;1.47;100.00
24788;BME280;12883;52.662;5.196;2023-12-07T08:24:39;100846.81;;;1.50;100.00
24788;BME280;12883;52.662;5.196;2023-12-07T08:27:04;100850.53;;;1.57;100.00
24788;BME280;12883;52.662;5.196;2023-12-07T08:29:30;100838.66;;;1.62;100.00
24788;BME280;12883;52.662;5.196;2023-12-07T08:31:55;100824.66;;;1.63;100.00
24788;BME280;12883;52.662;5.196;2023-12-07T08:34:21;100832.06;;;1.68;100.00
24788;BME280;12883;52.662;5.196;2023-12-07T08:36:46;100826.00;;;1.67;100.00
24788;BME280;12883;52.662;5.196;2023-12-07T08:39:11;100829.16;;;1.71;100.00
24788;BME280;12883;52.662;5.196;2023-12-07T08:41:37;100825.88;;;1.69;100.00
24788;BME280;12883;52.662;5.196;2023-12-07T08:44:03;100825.03;;;1.68;100.00
24788;BME280;12883;52.662;5.196;2023-12-07T08:46:28;100815.28;;;1.70;100.00
24788;BME280;12883;52.662;5.196;2023-12-07T08:48:54;100804.66;;;1.72;100.00
24788;BME280;12883;52.662;5.196;2023-12-07T08:51:19;100806.16;;;1.74;100.00
24788;BME280;12883;52.662;5.196;2023-12-07T08:53:44;100796.81;;;1.72;100.00
24788;BME280;12883;52.662;5.196;2023-12-07T08:56:10;100752.31;;;1.45;100.00
24788;BME280;12883;52.662;5.196;2023-12-07T08:58:38;100794.91;;;1.74;100.00
24788;BME280;12883;52.662;5.196;2023-12-07T09:01:03;100784.44;;;1.74;100.00
24788;BME280;12883;52.662;5.196;2023-12-07T09:03:30;100793.25;;;1.73;100.00
24788;BME280;12883;52.662;5.196;2023-12-07T09:05:57;100768.22;;;1.70;100.00
24788;BME280;12883;52.662;5.196;2023-12-07T09:08:23;100756.13;;;1.60;100.00
24788;BME280;12883;52.662;5.196;2023-12-07T09:10:48;100763.22;;;1.77;100.00
24788;BME280;12883;52.662;5.196;2023-12-07T09:13:19;100706.66;;;1.39;100.00
24788;BME280;12883;52.662;5.196;2023-12-07T09:15:44;100743.56;;;1.73;100.00
24788;BME280;12883;52.662;5.196;2023-12-07T09:18:10;100750.28;;;1.75;100.00
24788;BME280;12883;52.662;5.196;2023-12-07T09:20:39;100739.00;;;1.75;100.00
24788;BME280;12883;52.662;5.196;2023-12-07T09:23:11;100739.69;;;1.77;100.00
24788;BME280;12883;52.662;5.196;2023-12-07T09:25:38;100726.75;;;1.75;100.00
24788;BME280;12883;52.662;5.196;2023-12-07T09:28:03;100716.72;;;1.71;100.00
24788;BME280;12883;52.662;5.196;2023-12-07T09:30:29;100706.66;;;1.76;100.00
24788;BME280;12883;52.662;5.196;2023-12-07T09:32:54;100710.38;;;1.73;100.00
24788;BME280;12883;52.662;5.196;2023-12-07T09:35:20;100695.22;;;1.77;100.00
24788;BME280;12883;52.662;5.196;2023-12-07T09:37:46;100688.88;;;1.79;100.00
24788;BME280;12883;52.662;5.196;2023-12-07T09:40:15;100699.19;;;1.81;100.00
24788;BME280;12883;52.662;5.196;2023-12-07T09:42:42;100702.94;;;1.78;100.00
24788;BME280;12883;52.662;5.196;2023-12-07T09:45:08;100700.00;;;1.81;100.00
24788;BME280;12883;52.662;5.196;2023-12-07T09:47:34;100700.44;;;1.77;100.00
24788;BME280;12883;52.662;5.196;2023-12-07T09:50:01;100675.75;;;1.62;100.00
24788;BME280;12883;52.662;5.196;2023-12-07T09:52:27;100700.84;;;1.82;100.00
24788;BME280;12883;52.662;5.196;2023-12-07T09:54:52;100690.28;;;1.74;100.00
24788;BME280;12883;52.662;5.196;2023-12-07T09:57:20;100694.09;;;1.79;100.00
24788;BME280;12883;52.662;5.196;2023-12-07T09:59:46;100698.22;;;1.82;100.00
24788;BME280;12883;52.662;5.196;2023-12-07T10:02:13;100697.38;;;1.81;100.00
24788;BME280;12883;52.662;5.196;2023-12-07T10:04:39;100699.34;;;1.79;100.00
24788;BME280;12883;52.662;5.196;2023-12-07T10:07:05;100694.34;;;1.86;100.00
24788;BME280;12883;52.662;5.196;2023-12-07T10:09:34;100677.00;;;1.85;100.00
24788;BME280;12883;52.662;5.196;2023-12-07T10:12:04;100675.50;;;1.82;100.00
24788;BME280;12883;52.662;5.196;2023-12-07T10:14:29;100678.94;;;1.83;100.00
24788;BME280;12883;52.662;5.196;2023-12-07T10:16:55;100658.34;;;1.53;100.00
24788;BME280;12883;52.662;5.196;2023-12-07T10:19:22;100661.88;;;1.79;100.00
24788;BME280;12883;52.662;5.196;2023-12-07T10:21:48;100663.25;;;1.83;100.00
24788;BME280;12883;52.662;5.196;2023-12-07T10:24:16;100650.03;;;1.84;100.00
24788;BME280;12883;52.662;5.196;2023-12-07T10:26:43;100638.47;;;1.87;100.00
24788;BME280;12883;52.662;5.196;2023-12-07T10:29:09;100633.22;;;1.87;100.00
24788;BME280;12883;52.662;5.196;2023-12-07T10:31:36;100628.53;;;1.90;100.00
24788;BME280;12883;52.662;5.196;2023-12-07T10:34:01;100629.47;;;1.89;100.00
24788;BME280;12883;52.662;5.196;2023-12-07T10:36:27;100615.59;;;1.89;100.00
24788;BME280;12883;52.662;5.196;2023-12-07T10:38:53;100617.53;;;1.87;100.00
24788;BME280;12883;52.662;5.196;2023-12-07T10:41:19;100607.75;;;1.89;100.00
24788;BME280;12883;52.662;5.196;2023-12-07T10:43:52;100607.75;;;1.89;100.00
24788;BME280;12883;52.662;5.196;2023-12-07T10:46:20;100603.50;;;1.88;100.00
24788;BME280;12883;52.662;5.196;2023-12-07T10:48:46;100574.47;;;1.64;100.00
24788;BME280;12883;52.662;5.196;2023-12-07T10:51:27;100601.84;;;1.87;100.00
24788;BME280;12883;52.662;5.196;2023-12-07T10:53:56;100583.81;;;1.84;100.00
24788;BME280;12883;52.662;5.196;2023-12-07T10:56:38;100575.25;;;1.91;100.00
24788;BME280;12883;52.662;5.196;2023-12-07T10:59:07;100576.63;;;1.86;100.00
24788;BME280;12883;52.662;5.196;2023-12-07T11:01:38;100573.59;;;1.90;100.00
24788;BME280;12883;52.662;5.196;2023-12-07T11:04:04;100569.50;;;1.88;100.00
24788;BME280;12883;52.662;5.196;2023-12-07T11:06:30;100562.81;;;1.93;100.00
24788;BME280;12883;52.662;5.196;2023-12-07T11:09:03;100572.91;;;1.88;100.00
24788;BME280;12883;52.662;5.196;2023-12-07T11:11:35;100576.34;;;1.89;100.00
24788;BME280;12883;52.662;5.196;2023-12-07T11:14:06;100582.84;;;1.85;100.00
24788;BME280;12883;52.662;5.196;2023-12-07T11:16:36;100573.06;;;1.87;100.00
24788;BME280;12883;52.662;5.196;2023-12-07T11:19:02;100563.28;;;1.89;100.00
24788;BME280;12883;52.662;5.196;2023-12-07T11:21:30;100577.03;;;1.91;100.00
24788;BME280;12883;52.662;5.196;2023-12-07T11:23:55;100550.19;;;1.71;100.00
24788;BME280;12883;52.662;5.196;2023-12-07T11:26:24;100490.28;;;1.43;100.00
24788;BME280;12883;52.662;5.196;2023-12-07T11:28:50;100550.06;;;1.90;100.00
24788;BME280;12883;52.662;5.196;2023-12-07T11:31:16;100536.81;;;1.92;100.00
24788;BME280;12883;52.662;5.196;2023-12-07T11:33:42;100506.81;;;1.61;100.00
24788;BME280;12883;52.662;5.196;2023-12-07T11:36:09;100536.47;;;1.87;100.00
24788;BME280;12883;52.662;5.196;2023-12-07T11:38:55;100531.13;;;1.96;100.00
24788;BME280;12883;52.662;5.196;2023-12-07T11:41:24;100534.56;;;1.97;100.00
24788;BME280;12883;52.662;5.196;2023-12-07T11:43:50;100521.81;;;1.94;100.00
24788;BME280;12883;52.662;5.196;2023-12-07T11:46:18;100503.00;;;1.73;100.00
24788;BME280;12883;52.662;5.196;2023-12-07T11:48:47;100532.56;;;1.91;100.00
24788;BME280;12883;52.662;5.196;2023-12-07T11:51:13;100534.50;;;1.89;100.00
24788;BME280;12883;52.662;5.196;2023-12-07T11:53:39;100526.00;;;1.87;100.00
24788;BME280;12883;52.662;5.196;2023-12-07T11:56:06;100521.13;;;1.92;100.00
24788;BME280;12883;52.662;5.196;2023-12-07T11:58:33;100517.84;;;1.90;100.00
24788;BME280;12883;52.662;5.196;2023-12-07T12:00:59;100529.94;;;1.91;100.00
24788;BME280;12883;52.662;5.196;2023-12-07T12:03:25;100511.94;;;1.88;100.00
24788;BME280;12883;52.662;5.196;2023-12-07T12:05:51;100445.19;;;1.58;100.00
24788;BME280;12883;52.662;5.196;2023-12-07T12:08:18;100503.63;;;1.92;100.00
24788;BME280;12883;52.662;5.196;2023-12-07T12:10:45;100504.63;;;1.91;100.00
24788;BME280;12883;52.662;5.196;2023-12-07T12:13:11;100491.13;;;2.04;100.00
24788;BME280;12883;52.662;5.196;2023-12-07T12:15:38;100491.06;;;1.96;100.00
24788;BME280;12883;52.662;5.196;2023-12-07T12:18:04;100503.94;;;1.89;100.00
24788;BME280;12883;52.662;5.196;2023-12-07T12:20:30;100507.78;;;1.77;100.00
24788;BME280;12883;52.662;5.196;2023-12-07T12:22:57;100516.47;;;1.86;100.00
24788;BME280;12883;52.662;5.196;2023-12-07T12:25:23;100510.59;;;1.84;100.00
24788;BME280;12883;52.662;5.196;2023-12-07T12:27:55;100508.28;;;1.81;100.00
24788;BME280;12883;52.662;5.196;2023-12-07T12:30:21;100491.81;;;1.88;100.00
24788;BME280;12883;52.662;5.196;2023-12-07T12:32:50;100474.34;;;1.89;100.00
24788;BME280;12883;52.662;5.196;2023-12-07T12:35:17;100479.78;;;1.95;100.00
24788;BME280;12883;52.662;5.196;2023-12-07T12:37:43;100473.19;;;1.83;100.00
24788;BME280;12883;52.662;5.196;2023-12-07T12:40:11;100498.88;;;1.88;100.00
24788;BME280;12883;52.662;5.196;2023-12-07T12:42:37;100452.06;;;1.85;100.00
24788;BME280;12883;52.662;5.196;2023-12-07T12:45:07;100437.69;;;1.81;100.00
24788;BME280;12883;52.662;5.196;2023-12-07T12:47:34;100448.19;;;1.89;100.00